Time;durP1;ratioP1;P1;durP2;ratioP2;P2;SDS_P1;SDS_P2;PMS_P1;PMS_P2;Temp;Humidity;BMP_temperature;BMP_pressure;BME280_temperature;BME280_humidity;BME280_pressure;Samples;Min_cycle;Max_cycle;Signal;HPM_P1;HPM_P2
2022/08/16 00:00:09;;;;;;;11.77;9.35;;;20.10;99.90;;;;;;6302109;22;20424;-83
2022/08/16 00:02:35;;;;;;;10.52;9.05;;;20.00;99.90;;;;;;6302112;22;20000;-83
2022/08/16 00:05:03;;;;;;;12.90;8.88;;;20.00;99.90;;;;;;6302260;22;20007;-92
2022/08/16 00:07:29;;;;;;;14.65;8.70;;;20.00;99.90;;;;;;6274827;22;20385;-83
2022/08/16 00:09:55;;;;;;;11.65;9.02;;;20.00;99.90;;;;;;6302052;22;20381;-82
2022/08/16 00:12:21;;;;;;;11.60;8.80;;;20.00;99.90;;;;;;6274723;22;20424;-83
2022/08/16 00:14:49;;;;;;;14.13;9.02;;;19.10;99.90;;;;;;6303129;22;20003;-88
2022/08/16 00:17:15;;;;;;;;;;;19.30;99.90;;;;;;6275353;22;20000;-82
2022/08/16 00:19:41;;;;;;;14.48;9.75;;;20.00;99.90;;;;;;6304258;22;20212;-82
2022/08/16 00:22:06;;;;;;;13.65;9.85;;;19.90;99.90;;;;;;6304278;22;20487;-82
2022/08/16 00:24:33;;;;;;;10.75;8.65;;;19.90;99.90;;;;;;6303904;22;20046;-82
2022/08/16 00:27:00;;;;;;;12.10;9.68;;;19.80;99.90;;;;;;6304018;22;20063;-82
2022/08/16 00:29:25;;;;;;;15.95;10.02;;;19.80;99.90;;;;;;6304089;22;20014;-83
2022/08/16 00:31:52;;;;;;;13.63;9.30;;;19.80;99.90;;;;;;6277844;22;20435;-83
2022/08/16 00:34:19;;;;;;;12.02;9.68;;;20.00;99.90;;;;;;6278094;22;20007;-82
2022/08/16 00:36:45;;;;;;;16.05;9.68;;;19.80;99.90;;;;;;6304281;22;20442;-86
2022/08/16 00:39:15;;;;;;;16.10;9.43;;;19.80;99.90;;;;;;6276584;22;20029;-83
2022/08/16 00:41:43;;;;;;;11.68;9.38;;;19.80;99.90;;;;;;6276940;22;20442;-82
2022/08/16 00:44:10;;;;;;;11.95;9.93;;;19.80;99.90;;;;;;6304060;22;20022;-82
2022/08/16 00:46:56;;;;;;;14.60;10.15;;;19.80;99.90;;;;;;6304041;22;20006;-82
2022/08/16 00:49:23;;;;;;;19.02;10.23;;;19.80;99.90;;;;;;6277613;22;20014;-82
2022/08/16 00:51:50;;;;;;;13.45;10.25;;;19.80;99.90;;;;;;6304931;22;19996;-82
2022/08/16 00:54:16;;;;;;;12.80;10.77;;;19.80;99.90;;;;;;6303745;22;20034;-82
2022/08/16 00:56:45;;;;;;;13.15;10.38;;;19.70;99.90;;;;;;6303631;22;19995;-85
2022/08/16 00:59:14;;;;;;;14.18;10.05;;;19.70;99.90;;;;;;6276451;22;20060;-88
2022/08/16 01:01:41;;;;;;;13.55;10.88;;;19.70;99.90;;;;;;6303840;22;20124;-82
2022/08/16 01:04:08;;;;;;;17.23;11.70;;;19.70;99.90;;;;;;6304054;22;20011;-82
2022/08/16 01:06:35;;;;;;;13.40;10.55;;;19.70;99.90;;;;;;6303675;22;19995;-82
2022/08/16 01:09:05;;;;;;;14.20;10.77;;;19.70;99.90;;;;;;6303687;22;20474;-82
2022/08/16 01:11:33;;;;;;;17.95;11.30;;;19.70;99.90;;;;;;6304572;22;20074;-82
2022/08/16 01:14:17;;;;;;;12.02;10.75;;;19.70;99.90;;;;;;6304108;22;19999;-82
2022/08/16 01:16:44;;;;;;;13.15;10.02;;;19.60;99.90;;;;;;6303601;22;20066;-82
2022/08/16 01:19:16;;;;;;;13.77;11.55;;;19.60;99.90;;;;;;6303622;22;20000;-82
2022/08/16 01:22:02;;;;;;;12.65;10.77;;;19.60;99.90;;;;;;6276017;22;20034;-83
2022/08/16 01:24:35;;;;;;;13.68;10.40;;;19.60;99.90;;;;;;6305444;22;20015;-82
2022/08/16 01:27:10;;;;;;;17.83;11.35;;;19.60;99.90;;;;;;6305280;22;19999;-83
2022/08/16 01:29:45;;;;;;;14.95;11.43;;;19.60;99.90;;;;;;6303022;22;20006;-82
2022/08/16 01:32:11;;;;;;;16.25;11.85;;;19.60;99.90;;;;;;6303520;22;20132;-83
2022/08/16 01:34:39;;;;;;;15.57;11.75;;;19.60;99.90;;;;;;6303630;22;19995;-82
2022/08/16 01:37:08;;;;;;;;;;;19.50;99.90;;;;;;6276689;22;20043;-84
2022/08/16 01:39:36;;;;;;;14.15;12.68;;;19.60;99.90;;;;;;6303568;22;19944;-82
2022/08/16 01:42:03;;;;;;;14.90;12.90;;;19.50;99.90;;;;;;6303494;22;20079;-82
2022/08/16 01:44:29;;;;;;;18.03;12.47;;;19.50;99.90;;;;;;6303236;22;20007;-89
2022/08/16 01:46:56;;;;;;;14.02;12.25;;;19.50;99.90;;;;;;6305122;22;20022;-82
2022/08/16 01:49:32;;;;;;;20.10;13.13;;;19.50;99.90;;;;;;6304167;22;20033;-82
2022/08/16 01:52:19;;;;;;;22.10;12.38;;;19.50;99.90;;;;;;6303341;22;20339;-83
2022/08/16 01:54:44;;;;;;;21.33;12.63;;;19.50;99.90;;;;;;6303385;22;20007;-82
2022/08/16 01:57:10;;;;;;;17.00;13.77;;;19.40;99.90;;;;;;6303180;22;20070;-82
2022/08/16 01:59:40;;;;;;;19.30;14.07;;;19.50;99.90;;;;;;6303471;22;20004;-84
2022/08/16 02:02:06;;;;;;;19.88;14.38;;;19.50;99.90;;;;;;6303136;22;19999;-82
2022/08/16 02:04:34;;;;;;;16.17;14.48;;;19.50;99.90;;;;;;6303047;22;20078;-82
2022/08/16 02:07:04;;;;;;;15.25;13.75;;;19.50;99.90;;;;;;6303222;22;20506;-83
2022/08/16 02:09:29;;;;;;;17.13;14.30;;;19.50;99.90;;;;;;6303092;22;20003;-82
2022/08/16 02:11:58;;;;;;;15.95;13.75;;;19.50;99.90;;;;;;6304558;22;20026;-82
2022/08/16 02:14:27;;;;;;;19.20;13.95;;;19.50;99.90;;;;;;6304335;22;20497;-82
2022/08/16 02:16:56;;;;;;;16.30;14.43;;;19.50;99.90;;;;;;6304301;22;20082;-82
2022/08/16 02:19:22;;;;;;;;;;;19.50;99.90;;;;;;6276326;22;20068;-84
2022/08/16 02:21:53;;;;;;;20.35;15.27;;;19.70;99.90;;;;;;6303197;22;20106;-83
2022/08/16 02:24:21;;;;;;;17.65;13.73;;;19.60;99.90;;;;;;6302872;22;20019;-83
2022/08/16 02:26:50;;;;;;;18.40;14.52;;;19.60;99.90;;;;;;6303205;22;20004;-83
2022/08/16 02:29:17;;;;;;;18.08;14.43;;;19.70;99.90;;;;;;6303073;22;20320;-82
2022/08/16 02:31:45;;;;;;;19.33;15.30;;;19.60;99.90;;;;;;6302935;22;20027;-83
2022/08/16 02:34:12;;;;;;;19.40;15.05;;;19.40;99.90;;;;;;6303006;22;20006;-88
2022/08/16 02:36:39;;;;;;;17.15;15.38;;;19.80;99.90;;;;;;6302717;22;20083;-83
2022/08/16 02:39:06;;;;;;;22.23;15.15;;;19.50;99.90;;;;;;6303088;22;20007;-82
2022/08/16 02:41:33;;;;;;;17.25;14.23;;;19.50;99.90;;;;;;6302942;22;20000;-82
2022/08/16 02:43:59;;;;;;;20.88;15.43;;;19.60;99.90;;;;;;6303824;22;20038;-83
2022/08/16 02:46:25;;;;;;;21.00;15.48;;;19.60;99.90;;;;;;6303789;22;19995;-83
2022/08/16 02:48:51;;;;;;;19.92;15.43;;;19.60;99.90;;;;;;6275783;22;20340;-83
2022/08/16 02:51:17;;;;;;;18.50;15.45;;;19.50;99.90;;;;;;6302599;22;19996;-82
2022/08/16 02:53:45;;;;;;;20.85;15.90;;;17.90;99.90;;;;;;6275711;22;20006;-82
2022/08/16 02:56:13;;;;;;;18.42;16.40;;;19.50;99.90;;;;;;6303029;22;20042;-82
2022/08/16 02:58:40;;;;;;;19.23;15.50;;;19.50;99.90;;;;;;6302669;22;19996;-82
2022/08/16 03:01:06;;;;;;;20.73;16.90;;;19.50;99.90;;;;;;6302465;22;19999;-83
2022/08/16 03:03:33;;;;;;;23.52;16.58;;;19.50;99.90;;;;;;6302251;22;20508;-84
2022/08/16 03:05:59;;;;;;;21.97;15.53;;;19.50;99.90;;;;;;6303627;22;20515;-91
2022/08/16 03:08:25;;;;;;;17.65;15.23;;;19.50;99.90;;;;;;6302604;22;20031;-83
2022/08/16 03:10:51;;;;;;;20.52;16.02;;;19.50;99.90;;;;;;6302573;22;20155;-82
2022/08/16 03:13:17;;;;;;;25.42;17.50;;;19.60;99.90;;;;;;6302861;22;20177;-82
2022/08/16 03:15:44;;;;;;;16.17;14.57;;;19.50;99.90;;;;;;6302573;22;20003;-86
2022/08/16 03:18:10;;;;;;;18.63;16.02;;;19.50;99.90;;;;;;6302423;22;20006;-82
2022/08/16 03:20:37;;;;;;;21.63;15.07;;;19.50;99.90;;;;;;6302679;22;20435;-82
2022/08/16 03:23:04;;;;;;;17.13;14.77;;;19.50;99.90;;;;;;6302496;22;20541;-82
2022/08/16 03:25:31;;;;;;;21.17;16.17;;;19.50;99.90;;;;;;6303728;22;20000;-82
2022/08/16 03:27:57;;;;;;;20.27;15.87;;;19.50;99.90;;;;;;6276147;22;20076;-82
2022/08/16 03:30:26;;;;;;;19.63;16.08;;;19.30;99.90;;;;;;6302229;22;20442;-82
2022/08/16 03:32:52;;;;;;;20.80;16.70;;;19.50;99.90;;;;;;6302271;22;20359;-82
2022/08/16 03:35:21;;;;;;;21.35;16.65;;;19.50;99.90;;;;;;6302447;22;20010;-83
2022/08/16 03:37:51;;;;;;;19.63;16.67;;;19.50;99.90;;;;;;6302502;22;20014;-82
2022/08/16 03:40:16;;;;;;;23.40;16.60;;;19.50;99.90;;;;;;6302474;22;20063;-82
2022/08/16 03:42:42;;;;;;;19.05;16.13;;;19.60;99.90;;;;;;6302366;22;20034;-82
2022/08/16 03:45:08;;;;;;;22.05;17.02;;;19.60;99.90;;;;;;6302133;22;20446;-82
2022/08/16 03:47:34;;;;;;;21.85;17.13;;;19.80;99.90;;;;;;6302080;22;20007;-82
2022/08/16 03:50:01;;;;;;;19.48;17.42;;;19.60;99.90;;;;;;6303563;22;20008;-82
2022/08/16 03:52:27;;;;;;;20.93;17.50;;;19.60;99.90;;;;;;6275650;22;20004;-88
2022/08/16 03:54:53;;;;;;;25.95;16.98;;;19.60;99.90;;;;;;6306338;22;20677;-83
2022/08/16 03:57:20;;;;;;;21.27;17.80;;;19.60;99.90;;;;;;6319706;22;20010;-82
2022/08/16 03:59:45;;;;;;;21.08;16.83;;;19.60;99.90;;;;;;6303901;22;20005;-83
2022/08/16 04:02:11;;;;;;;22.35;17.50;;;20.20;99.90;;;;;;6316188;22;20373;-84
2022/08/16 04:04:38;;;;;;;23.00;16.48;;;19.70;99.90;;;;;;6317416;22;20018;-84
2022/08/16 04:07:05;;;;;;;26.25;18.60;;;19.70;99.90;;;;;;6287108;22;20000;-83
2022/08/16 04:09:33;;;;;;;23.70;18.07;;;19.70;99.90;;;;;;6312399;22;20056;-83
2022/08/16 04:11:59;;;;;;;;;;;18.10;99.90;;;;;;6312153;22;20034;-84
2022/08/16 04:14:25;;;;;;;21.27;16.67;;;20.60;99.90;;;;;;6293225;22;19902;-85
2022/08/16 04:16:52;;;;;;;22.25;17.50;;;19.70;99.90;;;;;;6323877;22;19999;-84
2022/08/16 04:19:18;;;;;;;19.77;17.23;;;19.70;99.90;;;;;;6312691;22;20498;-84
2022/08/16 04:21:44;;;;;;;23.05;17.98;;;20.00;99.90;;;;;;6284700;22;20029;-83
2022/08/16 04:24:10;;;;;;;23.77;17.88;;;19.90;99.90;;;;;;6312015;22;20079;-83
2022/08/16 04:26:35;;;;;;;22.17;17.10;;;20.10;99.90;;;;;;6308878;22;20010;-83
2022/08/16 04:29:03;;;;;;;20.55;16.92;;;19.70;99.90;;;;;;6308348;22;20022;-84
2022/08/16 04:31:29;;;;;;;23.77;16.00;;;19.90;99.90;;;;;;6282434;22;20410;-84
2022/08/16 04:33:58;;;;;;;19.23;16.33;;;19.80;99.90;;;;;;6274921;22;20084;-83
2022/08/16 04:36:27;;;;;;;23.55;17.80;;;19.70;99.90;;;;;;6277947;22;20007;-83
2022/08/16 04:38:54;;;;;;;24.50;17.08;;;19.70;99.90;;;;;;6306081;22;19999;-83
2022/08/16 04:41:23;;;;;;;21.27;16.67;;;19.70;99.90;;;;;;6306049;22;20003;-84
2022/08/16 04:43:50;;;;;;;20.65;15.65;;;19.70;99.90;;;;;;6305562;22;20050;-84
2022/08/16 04:46:16;;;;;;;21.98;17.30;;;19.70;99.90;;;;;;6306728;22;20000;-84
2022/08/16 04:48:42;;;;;;;19.05;17.05;;;19.70;99.90;;;;;;6310714;22;20132;-84
2022/08/16 04:51:09;;;;;;;21.70;16.48;;;22.10;99.90;;;;;;6295702;22;20385;-83
2022/08/16 04:53:35;;;;;;;22.55;17.00;;;20.60;99.90;;;;;;6312248;22;20009;-86
2022/08/16 04:56:01;;;;;;;20.70;16.50;;;19.70;99.90;;;;;;6305535;22;20057;-84
2022/08/16 04:58:27;;;;;;;20.15;15.27;;;19.70;99.90;;;;;;6305099;22;20003;-83
2022/08/16 05:00:56;;;;;;;18.48;14.80;;;19.60;99.90;;;;;;6277777;22;20038;-85
2022/08/16 05:03:21;;;;;;;22.02;14.23;;;19.70;99.90;;;;;;6278047;22;20092;-85
2022/08/16 05:05:48;;;;;;;21.00;14.32;;;19.70;99.90;;;;;;6303140;22;20003;-84
2022/08/16 05:08:13;;;;;;;20.13;14.38;;;19.70;99.90;;;;;;6303478;22;20070;-86
2022/08/16 05:10:40;;;;;;;30.73;16.13;;;19.70;99.90;;;;;;6303374;22;20033;-83
2022/08/16 05:13:07;;;;;;;20.33;15.02;;;19.70;99.90;;;;;;6304490;22;20019;-89
2022/08/16 05:15:34;;;;;;;16.97;14.33;;;18.70;99.90;;;;;;6277296;22;20007;-85
2022/08/16 05:18:00;;;;;;;28.52;14.98;;;19.70;99.90;;;;;;6276021;22;20006;-84
2022/08/16 05:20:26;;;;;;;25.15;15.23;;;19.70;99.90;;;;;;6303478;22;19999;-88
2022/08/16 05:22:52;;;;;;;26.00;15.85;;;20.00;99.90;;;;;;6303524;22;19999;-89
2022/08/16 05:25:21;;;;;;;23.52;14.77;;;19.70;99.90;;;;;;6302877;22;20436;-81
2022/08/16 05:27:46;;;;;;;25.95;15.00;;;19.70;99.90;;;;;;6276162;22;20010;-82
2022/08/16 05:30:13;;;;;;;23.23;14.77;;;19.70;99.90;;;;;;6304088;22;20394;-82
2022/08/16 05:32:40;;;;;;;24.42;15.10;;;19.70;99.90;;;;;;6275894;22;20010;-82
2022/08/16 05:35:09;;;;;;;26.58;15.95;;;19.70;99.90;;;;;;6304440;22;19996;-82
2022/08/16 05:37:37;;;;;;;20.75;14.45;;;19.70;99.90;;;;;;6304389;22;20003;-82
2022/08/16 05:40:05;;;;;;;26.60;15.00;;;19.70;99.90;;;;;;6304431;22;20088;-83
2022/08/16 05:42:30;;;;;;;24.88;15.13;;;19.80;99.90;;;;;;6276020;22;20094;-82
2022/08/16 05:44:56;;;;;;;25.02;14.68;;;19.70;99.90;;;;;;6275371;22;20047;-82
2022/08/16 05:47:22;;;;;;;20.60;14.40;;;19.80;99.90;;;;;;6303440;22;19995;-82
2022/08/16 05:49:48;;;;;;;23.45;14.55;;;19.70;99.90;;;;;;6303701;22;20364;-90
2022/08/16 05:52:13;;;;;;;28.33;15.27;;;19.80;99.90;;;;;;6303257;22;20317;-85
2022/08/16 05:54:41;;;;;;;23.70;14.13;;;19.80;99.90;;;;;;6303250;22;20060;-82
2022/08/16 05:57:10;;;;;;;;;;;19.80;99.90;;;;;;6277685;22;20004;-83
2022/08/16 05:59:36;;;;;;;20.38;14.13;;;19.80;99.90;;;;;;6304434;22;19944;-82
2022/08/16 06:02:03;;;;;;;23.02;14.43;;;19.80;99.90;;;;;;6303161;22;20041;-82
2022/08/16 06:04:29;;;;;;;22.85;14.15;;;19.90;99.90;;;;;;6302881;22;20228;-83
2022/08/16 06:06:55;;;;;;;17.23;13.38;;;19.90;99.90;;;;;;6302994;22;20007;-82
2022/08/16 06:09:20;;;;;;;25.90;13.60;;;19.90;99.90;;;;;;6303400;22;20074;-84
2022/08/16 06:11:49;;;;;;;22.63;13.73;;;19.90;99.90;;;;;;6303389;22;20336;-82
2022/08/16 06:14:15;;;;;;;23.15;14.57;;;19.90;99.90;;;;;;6303188;22;20019;-84
2022/08/16 06:16:41;;;;;;;23.05;14.20;;;19.90;99.90;;;;;;6303032;22;20006;-86
2022/08/16 06:19:07;;;;;;;21.23;13.75;;;19.50;99.90;;;;;;6304122;22;20006;-82
2022/08/16 06:21:32;;;;;;;24.05;13.65;;;19.90;99.90;;;;;;6303011;22;20011;-87
2022/08/16 06:23:58;;;;;;;22.55;14.65;;;19.90;99.90;;;;;;6303491;22;20442;-84
2022/08/16 06:26:24;;;;;;;28.98;13.88;;;19.90;99.90;;;;;;6303363;22;20072;-86
2022/08/16 06:28:50;;;;;;;24.42;14.88;;;19.90;99.90;;;;;;6303119;22;20108;-83
2022/08/16 06:31:16;;;;;;;19.55;13.82;;;19.90;99.90;;;;;;6303028;22;20010;-82
2022/08/16 06:33:42;;;;;;;18.27;13.35;;;20.10;99.90;;;;;;6302852;22;20002;-82
2022/08/16 06:36:10;;;;;;;25.60;14.00;;;19.90;99.90;;;;;;6303940;22;20451;-83
2022/08/16 06:38:36;;;;;;;19.00;14.23;;;19.90;99.90;;;;;;6304068;22;20000;-83
2022/08/16 06:41:05;;;;;;;21.45;13.43;;;19.90;99.90;;;;;;6303097;22;20026;-87
2022/08/16 06:43:31;;;;;;;21.40;13.73;;;19.90;99.90;;;;;;6303034;22;20682;-85
2022/08/16 06:45:58;;;;;;;19.00;13.73;;;20.00;99.90;;;;;;6303004;22;20000;-84
2022/08/16 06:48:24;;;;;;;20.02;13.70;;;20.00;99.90;;;;;;6275364;22;20011;-88
2022/08/16 06:50:51;;;;;;;19.65;13.77;;;20.00;99.90;;;;;;6305440;22;20060;-83
2022/08/16 06:53:18;;;;;;;17.75;12.75;;;20.10;99.90;;;;;;6308420;22;20022;-83
2022/08/16 06:55:43;;;;;;;23.75;15.05;;;20.10;99.90;;;;;;6307765;22;20440;-82
2022/08/16 06:58:09;;;;;;;23.90;13.90;;;20.10;99.90;;;;;;6276311;22;19999;-84
2022/08/16 07:00:37;;;;;;;23.48;13.55;;;20.10;99.90;;;;;;6302670;22;20003;-87
2022/08/16 07:03:03;;;;;;;23.70;13.90;;;20.30;99.90;;;;;;6302581;22;20006;-87
2022/08/16 07:05:30;;;;;;;19.20;13.68;;;20.10;99.90;;;;;;6302498;22;20016;-83
2022/08/16 07:07:56;;;;;;;21.27;12.93;;;20.10;99.90;;;;;;6302798;22;20435;-82
2022/08/16 07:10:23;;;;;;;18.42;12.50;;;20.10;99.90;;;;;;6302640;22;20003;-83
2022/08/16 07:12:49;;;;;;;15.85;12.05;;;20.10;99.90;;;;;;6275451;22;20440;-83
2022/08/16 07:15:18;;;;;;;21.55;11.48;;;20.20;99.90;;;;;;6302569;22;20449;-83
2022/08/16 07:17:44;;;;;;;23.90;12.05;;;19.20;99.90;;;;;;6302346;22;20031;-82
2022/08/16 07:20:11;;;;;;;15.65;11.32;;;20.20;99.90;;;;;;6303590;22;20007;-83
2022/08/16 07:22:41;;;;;;;18.13;10.70;;;20.30;99.90;;;;;;6302604;22;20039;-84
2022/08/16 07:25:09;;;;;;;19.35;10.25;;;20.30;99.90;;;;;;6275391;22;20011;-82
2022/08/16 07:27:35;;;;;;;16.08;9.95;;;20.40;99.90;;;;;;6274560;22;20006;-82
2022/08/16 07:30:03;;;;;;;14.75;9.88;;;20.60;99.90;;;;;;6302523;22;20003;-83
2022/08/16 07:32:29;;;;;;;21.08;9.85;;;22.60;99.90;;;;;;6274822;22;20038;-82
2022/08/16 07:34:55;;;;;;;16.23;9.90;;;20.40;99.90;;;;;;6302492;22;20003;-83
2022/08/16 07:37:20;;;;;;;17.58;9.75;;;20.40;99.90;;;;;;6302523;22;20075;-87
2022/08/16 07:39:46;;;;;;;16.25;9.70;;;20.30;99.90;;;;;;6302252;22;20003;-83
2022/08/16 07:42:12;;;;;;;17.35;9.63;;;20.30;99.90;;;;;;6303385;22;20002;-82
2022/08/16 07:44:37;;;;;;;19.92;9.68;;;20.30;99.90;;;;;;6302081;22;20011;-82
2022/08/16 07:47:03;;;;;;;19.52;9.38;;;20.30;99.90;;;;;;6302128;22;20005;-89
2022/08/16 07:49:29;;;;;;;18.20;9.30;;;20.30;99.90;;;;;;6301965;22;20015;-82
2022/08/16 07:51:54;;;;;;;11.40;8.82;;;20.30;99.90;;;;;;6302468;22;19995;-90
2022/08/16 07:54:20;;;;;;;19.60;9.45;;;20.30;99.90;;;;;;6302487;22;20052;-89
2022/08/16 07:56:46;;;;;;;13.00;8.98;;;20.40;99.90;;;;;;6302533;22;20117;-83
2022/08/16 07:59:11;;;;;;;15.15;8.75;;;20.40;99.90;;;;;;6303315;22;19995;-88
2022/08/16 08:01:37;;;;;;;15.05;9.02;;;20.40;99.90;;;;;;6302278;22;19999;-89
2022/08/16 08:04:03;;;;;;;13.90;8.30;;;20.40;99.90;;;;;;6302325;22;20011;-84
2022/08/16 08:06:31;;;;;;;15.73;8.95;;;20.40;99.90;;;;;;6302170;22;20043;-88
2022/08/16 08:08:57;;;;;;;12.70;7.80;;;20.40;99.90;;;;;;6302351;22;20000;-85
2022/08/16 08:11:23;;;;;;;16.13;8.65;;;20.40;99.90;;;;;;6302194;22;20333;-88
2022/08/16 08:13:52;;;;;;;16.27;8.50;;;20.40;99.90;;;;;;6302073;22;19999;-90
2022/08/16 08:16:20;;;;;;;14.55;8.40;;;20.40;99.90;;;;;;6302127;22;20192;-89
2022/08/16 08:18:49;;;;;;;14.20;7.80;;;20.40;99.90;;;;;;6303476;22;20022;-82
2022/08/16 08:21:18;;;;;;;15.35;7.88;;;20.70;99.90;;;;;;6303271;22;20049;-82
2022/08/16 08:23:44;;;;;;;20.20;8.25;;;20.40;99.90;;;;;;6303081;22;20004;-89
2022/08/16 08:26:09;;;;;;;14.40;8.65;;;20.50;99.90;;;;;;6302243;22;20050;-83
2022/08/16 08:28:35;;;;;;;16.25;7.93;;;20.50;99.90;;;;;;6302145;22;20000;-85
2022/08/16 08:31:02;;;;;;;14.82;8.10;;;20.50;99.90;;;;;;6302194;22;20013;-82
2022/08/16 08:33:28;;;;;;;12.82;7.60;;;20.60;99.90;;;;;;6302306;22;20458;-83
2022/08/16 08:36:00;;;;;;;16.40;8.13;;;20.60;99.90;;;;;;6302191;22;20003;-83
2022/08/16 08:38:26;;;;;;;15.52;7.90;;;20.60;99.90;;;;;;6302159;22;20045;-84
2022/08/16 08:40:52;;;;;;;14.75;7.60;;;20.60;99.90;;;;;;6304219;22;20003;-87
2022/08/16 08:43:18;;;;;;;11.68;6.90;;;20.60;99.90;;;;;;6303805;22;20005;-82
2022/08/16 08:45:44;;;;;;;15.10;7.15;;;20.60;99.90;;;;;;6305353;22;20074;-87
2022/08/16 08:48:10;;;;;;;11.75;6.85;;;20.70;99.90;;;;;;6304261;22;20057;-86
2022/08/16 08:50:36;;;;;;;13.50;7.22;;;20.70;99.90;;;;;;6304115;22;20026;-82
2022/08/16 08:53:02;;;;;;;11.32;6.68;;;20.70;99.90;;;;;;6303952;22;19995;-82
2022/08/16 08:55:30;;;;;;;8.10;6.18;;;20.70;99.90;;;;;;6303901;22;20021;-82
2022/08/16 08:57:56;;;;;;;12.13;6.68;;;20.70;99.90;;;;;;6303818;22;19999;-87
2022/08/16 09:00:24;;;;;;;11.60;6.07;;;20.70;99.90;;;;;;6304045;22;19996;-88
2022/08/16 09:02:50;;;;;;;10.55;6.18;;;20.60;99.90;;;;;;6304128;22;20001;-83
2022/08/16 09:05:17;;;;;;;11.75;6.65;;;20.70;99.90;;;;;;6304871;22;20007;-82
2022/08/16 09:07:44;;;;;;;9.98;5.70;;;20.80;99.90;;;;;;6303801;22;19995;-82
2022/08/16 09:10:10;;;;;;;11.18;6.13;;;20.90;99.90;;;;;;6303732;22;20013;-87
2022/08/16 09:12:38;;;;;;;7.07;5.10;;;21.00;99.90;;;;;;6303727;22;20443;-88
2022/08/16 09:15:06;;;;;;;6.60;4.73;;;21.00;99.90;;;;;;6304060;22;20053;-88
2022/08/16 09:17:32;;;;;;;9.63;5.13;;;21.10;99.90;;;;;;6303812;22;20078;-82
2022/08/16 09:19:57;;;;;;;6.80;3.83;;;21.10;99.90;;;;;;6303666;22;20446;-82
2022/08/16 09:22:25;;;;;;;5.68;3.47;;;21.10;99.90;;;;;;6303941;22;20007;-85
2022/08/16 09:24:50;;;;;;;6.43;3.20;;;21.10;99.90;;;;;;6303698;22;20424;-82
2022/08/16 09:27:16;;;;;;;9.70;3.40;;;21.10;99.90;;;;;;6305080;22;20078;-90
2022/08/16 09:29:43;;;;;;;8.85;3.33;;;21.10;99.90;;;;;;6304241;22;20129;-86
2022/08/16 09:32:09;;;;;;;5.93;2.38;;;21.30;99.90;;;;;;6307169;22;20078;-82
2022/08/16 09:34:35;;;;;;;7.45;2.10;;;21.30;99.90;;;;;;6295450;22;20088;-82
2022/08/16 09:37:01;;;;;;;3.75;2.15;;;21.30;99.90;;;;;;6320958;22;19983;-83
2022/08/16 09:39:28;;;;;;;6.30;2.30;;;21.30;99.90;;;;;;6294085;22;20031;-89
2022/08/16 09:41:55;;;;;;;3.42;1.88;;;21.40;99.90;;;;;;6309343;22;20054;-83
2022/08/16 09:44:25;;;;;;;2.85;1.85;;;21.30;99.90;;;;;;6305590;22;20038;-82
2022/08/16 09:46:52;;;;;;;2.67;1.83;;;21.30;99.90;;;;;;6303622;22;19996;-82
2022/08/16 09:49:19;;;;;;;2.27;1.67;;;21.30;99.90;;;;;;6277126;22;20038;-82
2022/08/16 09:51:45;;;;;;;3.70;1.60;;;21.30;99.90;;;;;;6302863;22;19995;-82
2022/08/16 09:54:11;;;;;;;2.80;1.90;;;21.40;99.90;;;;;;6276026;22;20308;-88
2022/08/16 09:56:40;;;;;;;3.70;1.48;;;21.60;99.90;;;;;;6276024;22;20003;-90
2022/08/16 09:59:07;;;;;;;1.80;1.70;;;21.60;99.90;;;;;;6303498;22;20339;-90
2022/08/16 10:01:35;;;;;;;3.28;1.83;;;21.60;99.90;;;;;;6303496;22;19995;-83
2022/08/16 10:04:01;;;;;;;3.53;1.80;;;21.70;99.90;;;;;;6275880;22;20034;-89
2022/08/16 10:06:27;;;;;;;5.45;1.85;;;21.70;99.90;;;;;;6303233;22;20440;-82
2022/08/16 10:08:53;;;;;;;2.65;1.70;;;21.90;99.90;;;;;;6303500;22;20066;-82
2022/08/16 10:14:03;;;;;;;2.08;1.63;;;21.90;99.90;;;;;;6303141;22;20050;-82
2022/08/16 10:16:29;;;;;;;7.68;1.90;;;21.80;99.90;;;;;;6303244;22;20452;-82
2022/08/16 10:18:55;;;;;;;1.70;1.60;;;21.80;99.90;;;;;;6303053;22;20060;-82
2022/08/16 10:21:21;;;;;;;4.72;2.10;;;21.90;99.90;;;;;;6303978;22;19995;-90
2022/08/16 10:23:48;;;;;;;3.30;1.80;;;22.00;99.90;;;;;;6303349;22;20065;-91
2022/08/16 10:26:14;;;;;;;5.43;1.70;;;22.10;99.90;;;;;;6303098;22;20443;-82
2022/08/16 10:28:40;;;;;;;6.28;1.70;;;22.20;99.90;;;;;;6303176;22;20230;-83
2022/08/16 10:31:08;;;;;;;2.63;1.50;;;22.20;99.90;;;;;;6302991;22;20336;-92
2022/08/16 10:33:34;;;;;;;2.85;1.48;;;22.30;99.90;;;;;;6303125;22;20026;-82
2022/08/16 10:36:04;;;;;;;2.50;1.40;;;22.30;99.90;;;;;;6303056;22;20000;-87
2022/08/16 10:38:31;;;;;;;1.67;1.58;;;22.50;99.90;;;;;;6303276;22;20017;-83
2022/08/16 10:40:57;;;;;;;2.33;1.60;;;22.60;99.90;;;;;;6303023;22;20053;-82
2022/08/16 10:43:22;;;;;;;4.25;1.55;;;22.60;99.90;;;;;;6304007;22;20003;-90
2022/08/16 10:45:50;;;;;;;2.38;1.60;;;22.70;99.90;;;;;;6303197;22;19999;-82
2022/08/16 10:48:17;;;;;;;4.97;1.55;;;22.70;99.90;;;;;;6302820;22;20012;-82
2022/08/16 10:50:42;;;;;;;3.25;1.55;;;22.60;99.90;;;;;;6302923;22;20012;-83
2022/08/16 10:53:08;;;;;;;3.78;1.50;;;22.60;99.90;;;;;;6302979;22;20481;-90
2022/08/16 10:55:36;;;;;;;2.72;1.73;;;22.60;99.90;;;;;;6302868;22;20000;-83
2022/08/16 10:58:07;;;;;;;17.00;2.10;;;22.50;99.90;;;;;;6302665;22;20000;-82
2022/08/16 11:00:35;;;;;;;5.22;1.77;;;22.40;99.90;;;;;;6302663;22;20026;-85
2022/08/16 11:03:02;;;;;;;3.50;1.80;;;22.50;99.90;;;;;;6302043;22;20004;-83
2022/08/16 11:05:30;;;;;;;2.50;1.70;;;22.60;99.90;;;;;;6302724;22;20078;-82
2022/08/16 11:07:57;;;;;;;2.33;1.70;;;22.70;99.90;;;;;;6302705;22;19999;-82
2022/08/16 11:10:44;;;;;;;4.47;1.70;;;22.70;99.90;;;;;;6303804;22;20007;-89
2022/08/16 11:13:12;;;;;;;3.70;1.73;;;22.80;99.90;;;;;;6302738;22;20009;-82
2022/08/16 11:15:39;;;;;;;2.38;1.50;;;22.80;99.90;;;;;;6302982;22;20003;-82
2022/08/16 11:18:07;;;;;;;3.45;1.45;;;22.80;99.90;;;;;;6275281;22;20041;-82
2022/08/16 11:20:33;;;;;;;2.42;1.60;;;22.70;99.90;;;;;;6302636;22;19999;-82
2022/08/16 11:22:58;;;;;;;3.67;1.70;;;22.70;99.90;;;;;;6302631;22;20382;-82
2022/08/16 11:25:27;;;;;;;3.15;1.50;;;22.70;99.90;;;;;;6303491;22;20007;-82
2022/08/16 11:27:55;;;;;;;3.83;1.70;;;22.70;99.90;;;;;;6303403;22;20420;-89
2022/08/16 11:30:23;;;;;;;2.75;1.70;;;22.70;99.90;;;;;;6303699;22;20010;-82
2022/08/16 11:32:48;;;;;;;;;;;22.80;99.90;;;;;;6302993;22;19999;-89
2022/08/16 11:35:18;;;;;;;4.30;1.83;;;22.90;99.90;;;;;;6302462;22;19898;-82
2022/08/16 11:37:49;;;;;;;2.60;1.63;;;22.80;99.90;;;;;;6302475;22;20026;-82
2022/08/16 11:40:15;;;;;;;3.67;1.70;;;23.00;99.90;;;;;;6302083;22;20003;-89
2022/08/16 11:42:41;;;;;;;2.03;1.80;;;23.00;99.90;;;;;;6302468;22;20003;-83
2022/08/16 11:45:09;;;;;;;2.30;1.50;;;23.00;99.90;;;;;;6302429;22;20011;-89
2022/08/16 11:47:36;;;;;;;;;;;23.00;99.90;;;;;;6302899;22;20071;-90
2022/08/16 11:50:06;;;;;;;1.88;1.70;;;23.20;99.90;;;;;;6275003;22;19909;-86
2022/08/16 11:52:32;;;;;;;2.08;1.40;;;23.20;99.90;;;;;;6302449;22;20447;-89
2022/08/16 11:54:57;;;;;;;1.95;1.65;;;22.60;99.90;;;;;;6302270;22;20007;-82
2022/08/16 11:57:23;;;;;;;1.73;1.50;;;23.20;99.90;;;;;;6303522;22;20042;-88
2022/08/16 11:59:48;;;;;;;3.45;1.80;;;23.20;99.90;;;;;;6302360;22;20007;-82
2022/08/16 12:02:14;;;;;;;2.75;1.63;;;23.30;99.90;;;;;;6302207;22;19999;-86
2022/08/16 12:04:40;;;;;;;3.10;1.70;;;23.50;99.90;;;;;;6274656;22;20479;-86
2022/08/16 12:07:07;;;;;;;4.28;1.80;;;23.60;99.90;;;;;;6302134;22;20004;-87
2022/08/16 12:09:33;;;;;;;3.53;1.77;;;23.50;99.90;;;;;;6302141;22;20003;-82
2022/08/16 12:11:59;;;;;;;2.33;1.50;;;23.40;99.90;;;;;;6302407;22;20003;-82
2022/08/16 12:14:25;;;;;;;1.65;1.50;;;23.40;99.90;;;;;;6304666;22;19999;-82
2022/08/16 12:16:54;;;;;;;2.75;1.73;;;23.40;99.90;;;;;;6279654;22;20003;-83
2022/08/16 12:19:21;;;;;;;2.83;1.65;;;23.40;99.90;;;;;;6311678;22;20003;-82
2022/08/16 12:21:47;;;;;;;2.58;1.70;;;23.40;99.90;;;;;;6313267;22;19990;-82
2022/08/16 12:24:13;;;;;;;5.03;1.60;;;23.40;99.90;;;;;;6309191;22;20094;-83
2022/08/16 12:26:39;;;;;;;3.38;1.80;;;23.30;99.90;;;;;;6305682;22;20504;-82
2022/08/16 12:29:05;;;;;;;3.00;1.80;;;23.40;99.90;;;;;;6304301;22;19999;-82
2022/08/16 12:31:30;;;;;;;2.53;1.60;;;23.40;99.90;;;;;;6304472;22;20064;-82
2022/08/16 12:33:56;;;;;;;3.85;1.50;;;23.50;99.90;;;;;;6305548;22;20003;-89
2022/08/16 12:36:23;;;;;;;2.28;1.65;;;23.70;99.90;;;;;;6304059;22;20078;-88